Time;durP1;ratioP1;P1;durP2;ratioP2;P2;SDS_P1;SDS_P2;PMS_P1;PMS_P2;Temp;Humidity;BMP_temperature;BMP_pressure;BME280_temperature;BME280_humidity;BME280_pressure;Samples;Min_cycle;Max_cycle;Signal;HPM_P1;HPM_P2
2024/04/20 00:00:56;;;;;;;4.28;1.33;;;;;;;13.01;45.76;96816.69;5210812;27;20086;-85
2024/04/20 00:03:21;;;;;;;5.53;1.17;;;;;;;12.53;46.19;96788.38;5210331;27;20025;-87
2024/04/20 00:05:47;;;;;;;4.60;1.20;;;;;;;12.92;46.14;96821.69;5206093;27;20026;-83
2024/04/20 00:08:12;;;;;;;3.72;1.00;;;;;;;12.89;45.54;96804.69;5219396;27;20023;-84
2024/04/20 00:10:37;;;;;;;8.45;1.73;;;;;;;13.16;44.79;96810.59;5199711;27;20058;-86
2024/04/20 00:13:03;;;;;;;4.68;0.80;;;;;;;13.17;44.95;96823.38;5236297;27;20085;-90
2024/04/20 00:15:28;;;;;;;4.35;1.75;;;;;;;13.16;45.30;96815.81;5183226;27;20033;-82
2024/04/20 00:17:54;;;;;;;5.18;0.95;;;;;;;13.23;45.27;96816.28;5232505;27;20082;-84
2024/04/20 00:20:19;;;;;;;4.28;1.05;;;;;;;13.32;44.52;96814.72;5215341;27;20022;-84
2024/04/20 00:22:45;;;;;;;5.40;1.35;;;;;;;13.17;44.91;96809.53;5219724;27;20008;-86
2024/04/20 00:25:10;;;;;;;7.18;1.27;;;;;;;12.96;45.96;96808.88;5190012;27;20102;-85
2024/04/20 00:27:36;;;;;;;2.05;0.90;;;;;;;13.12;45.78;96833.88;5205390;27;20011;-86
2024/04/20 00:30:02;;;;;;;7.43;1.38;;;;;;;13.25;44.83;96820.22;5235775;27;20018;-85
2024/04/20 00:32:27;;;;;;;3.88;0.70;;;;;;;13.01;45.24;96814.84;5181939;27;20008;-87
2024/04/20 00:34:52;;;;;;;3.85;1.65;;;;;;;12.93;45.60;96829.25;5224824;27;20006;-84
2024/04/20 00:37:18;;;;;;;4.07;1.20;;;;;;;13.02;45.62;96829.50;5239135;27;20058;-87
2024/04/20 00:39:43;;;;;;;6.88;1.35;;;;;;;13.00;45.38;96831.56;5212239;27;20039;-86
2024/04/20 00:42:09;;;;;;;3.65;1.08;;;;;;;12.99;45.50;96822.19;5207994;27;20483;-85
2024/04/20 00:44:35;;;;;;;3.95;0.98;;;;;;;13.02;45.06;96836.53;5217374;27;20475;-86
2024/04/20 00:47:02;;;;;;;3.33;1.00;;;;;;;13.06;45.30;96851.41;5226715;27;20004;-84
2024/04/20 00:49:30;;;;;;;4.60;1.10;;;;;;;13.12;45.28;96841.72;5196246;27;20029;-85
2024/04/20 00:51:55;;;;;;;5.88;1.00;;;;;;;13.05;45.15;96830.78;5208701;27;20039;-85
2024/04/20 00:54:21;;;;;;;5.32;1.40;;;;;;;13.05;44.79;96836.78;5211756;27;20007;-85
2024/04/20 00:56:46;;;;;;;6.47;1.35;;;;;;;13.02;44.92;96829.50;5197010;27;20023;-86
2024/04/20 00:59:12;;;;;;;4.82;1.20;;;;;;;12.97;44.61;96837.34;5206231;27;20455;-84
2024/04/20 01:01:38;;;;;;;3.08;1.13;;;;;;;13.03;45.08;96830.25;5221712;27;20502;-86
2024/04/20 01:04:03;;;;;;;4.63;1.30;;;;;;;12.99;45.24;96844.91;5219286;27;20021;-87
2024/04/20 01:06:30;;;;;;;3.47;0.90;;;;;;;13.11;44.57;96840.16;5178441;27;20016;-85
2024/04/20 01:08:56;;;;;;;3.72;1.08;;;;;;;13.07;44.21;96839.13;5232909;27;20468;-84
2024/04/20 01:11:22;;;;;;;3.65;1.02;;;;;;;12.91;44.76;96836.56;5204507;27;20463;-85
2024/04/20 01:13:52;;;;;;;3.00;0.90;;;;;;;13.06;44.71;96853.25;5196032;27;20019;-84
2024/04/20 01:16:17;;;;;;;3.78;1.42;;;;;;;12.87;45.13;96851.22;5185625;27;20006;-83
2024/04/20 01:18:42;;;;;;;3.47;1.40;;;;;;;13.00;44.91;96854.31;5204880;27;20011;-84
2024/04/20 01:21:08;;;;;;;8.85;1.35;;;;;;;13.04;44.68;96865.78;5209627;27;20022;-86
2024/04/20 01:23:34;;;;;;;4.82;1.35;;;;;;;12.96;44.64;96863.75;5204659;27;20004;-82
2024/04/20 01:25:59;;;;;;;5.82;1.23;;;;;;;12.61;46.08;96868.00;5162873;27;20004;-84
2024/04/20 01:28:25;;;;;;;4.30;1.50;;;;;;;12.92;45.13;96866.88;5187274;27;20026;-84
2024/04/20 01:30:50;;;;;;;2.90;1.30;;;;;;;12.86;45.03;96865.31;5189223;27;20022;-82
2024/04/20 01:33:18;;;;;;;6.25;1.40;;;;;;;12.99;44.70;96873.66;5236504;27;20008;-87
2024/04/20 01:35:43;;;;;;;4.45;1.05;;;;;;;12.98;44.54;96861.66;5238382;27;20021;-85
2024/04/20 01:38:09;;;;;;;6.68;1.15;;;;;;;12.98;44.74;96869.47;5180555;27;20004;-86
2024/04/20 01:40:34;;;;;;;4.50;0.90;;;;;;;12.98;44.50;96880.72;5193796;27;20748;-84
2024/04/20 01:43:00;;;;;;;4.30;1.20;;;;;;;12.91;44.35;96888.06;5209418;27;20022;-77
2024/04/20 01:45:25;;;;;;;2.83;0.85;;;;;;;12.72;45.39;96883.41;5211678;27;20569;-79
2024/04/20 01:47:51;;;;;;;5.32;1.10;;;;;;;12.75;45.37;96895.16;5210596;27;20025;-79
2024/04/20 01:50:16;;;;;;;5.70;1.23;;;;;;;12.79;45.14;96884.97;5240293;27;20093;-78
2024/04/20 01:52:43;;;;;;;6.70;1.08;;;;;;;12.91;44.98;96899.28;5212371;27;20007;-79
2024/04/20 01:55:08;;;;;;;4.65;1.00;;;;;;;12.89;45.22;96904.00;5208895;27;20015;-79
2024/04/20 01:57:34;;;;;;;3.05;1.00;;;;;;;12.83;45.21;96905.03;5208118;27;20370;-77
2024/04/20 02:00:00;;;;;;;3.47;1.10;;;;;;;12.91;45.00;96901.91;5182689;27;20044;-79
2024/04/20 02:02:26;;;;;;;5.55;1.00;;;;;;;12.87;45.31;96907.94;5222164;27;20465;-78
2024/04/20 02:04:51;;;;;;;1.98;0.73;;;;;;;12.87;45.59;96913.94;5193340;27;19999;-78
2024/04/20 02:07:17;;;;;;;4.53;1.00;;;;;;;12.82;45.50;96905.34;5239384;27;20022;-79
2024/04/20 02:09:43;;;;;;;6.50;1.45;;;;;;;12.84;45.55;96903.25;5241586;27;20006;-79
2024/04/20 02:12:09;;;;;;;3.67;1.00;;;;;;;12.89;45.44;96917.06;5237237;27;20007;-78
2024/04/20 02:14:35;;;;;;;5.70;0.80;;;;;;;12.81;46.03;96920.22;5207601;27;20371;-78
2024/04/20 02:17:00;;;;;;;4.40;1.08;;;;;;;12.76;46.15;96920.22;5206282;27;20003;-78
2024/04/20 02:19:26;;;;;;;4.78;1.40;;;;;;;12.91;45.39;96922.81;5206959;27;20015;-79
2024/04/20 02:21:51;;;;;;;3.40;0.90;;;;;;;12.80;45.69;96913.44;5208579;27;20022;-78
2024/04/20 02:24:16;;;;;;;4.60;1.27;;;;;;;12.80;45.48;96905.59;5211744;27;20019;-77
2024/04/20 02:26:42;;;;;;;2.50;0.98;;;;;;;12.83;45.59;96910.28;5206818;27;20016;-78
2024/04/20 02:29:07;;;;;;;2.67;0.93;;;;;;;12.79;45.83;96919.69;5191033;27;20004;-78
2024/04/20 02:31:33;;;;;;;1.90;0.70;;;;;;;12.65;46.87;96916.84;5198206;27;20040;-79
2024/04/20 02:33:59;;;;;;;3.22;0.98;;;;;;;12.72;46.30;96913.97;5215084;27;20003;-77
2024/04/20 02:36:25;;;;;;;4.35;1.33;;;;;;;12.88;45.62;96907.66;5216058;27;20082;-78
2024/04/20 02:38:51;;;;;;;2.20;0.88;;;;;;;12.78;45.78;96910.28;5219193;27;20085;-79
2024/04/20 02:41:20;;;;;;;3.53;0.82;;;;;;;12.96;45.23;96927.25;5246498;27;20011;-79
2024/04/20 02:43:47;;;;;;;2.00;0.65;;;;;;;12.82;45.82;96931.47;5239593;27;20019;-78
2024/04/20 02:46:12;;;;;;;3.78;0.70;;;;;;;12.87;45.51;96934.84;5214941;27;20524;-78
2024/04/20 02:48:38;;;;;;;5.20;0.93;;;;;;;12.96;45.54;96932.47;5207279;27;20016;-78
2024/04/20 02:51:06;;;;;;;5.22;0.93;;;;;;;12.87;45.26;96916.56;5198875;27;20042;-79
2024/04/20 02:53:33;;;;;;;2.80;1.08;;;;;;;12.78;45.69;96927.78;5209536;27;20018;-85
2024/04/20 02:55:59;;;;;;;2.35;1.02;;;;;;;12.73;46.02;96939.03;5205343;27;20468;-87
2024/04/20 02:58:25;;;;;;;2.50;1.33;;;;;;;12.79;45.93;96932.00;5211244;27;20063;-83
2024/04/20 03:00:58;;;;;;;3.72;0.90;;;;;;;12.91;45.61;96938.47;5211198;27;20003;-85
2024/04/20 03:03:29;;;;;;;5.50;1.30;;;;;;;13.01;45.08;96935.06;5233754;27;20488;-78
2024/04/20 03:05:55;;;;;;;3.88;1.05;;;;;;;12.77;45.41;96934.84;5208599;27;20022;-76
2024/04/20 03:08:20;;;;;;;5.97;1.88;;;;;;;12.58;45.74;96931.22;5191452;27;20004;-79
2024/04/20 03:10:46;;;;;;;2.25;0.77;;;;;;;12.64;45.97;96946.63;5209141;27;20560;-79
2024/04/20 03:13:14;;;;;;;1.30;0.60;;;;;;;12.50;46.08;96941.16;5244624;27;20007;-80
2024/04/20 03:15:43;;;;;;;3.50;1.08;;;;;;;12.67;45.74;96961.00;5213796;27;20004;-78
2024/04/20 03:18:10;;;;;;;4.47;0.93;;;;;;;12.50;45.46;96956.03;5212833;27;20489;-78
2024/04/20 03:20:36;;;;;;;2.88;1.17;;;;;;;12.47;45.67;96967.00;5197817;27;20012;-78
2024/04/20 03:23:01;;;;;;;3.15;0.90;;;;;;;12.43;45.64;96956.28;5211207;27;20025;-77
2024/04/20 03:25:27;;;;;;;2.85;0.70;;;;;;;12.54;45.60;96967.50;5262315;27;20048;-78
2024/04/20 03:27:52;;;;;;;2.38;0.80;;;;;;;12.52;45.48;96964.38;5183623;27;20008;-78
2024/04/20 03:30:18;;;;;;;5.18;0.75;;;;;;;12.51;45.60;96952.41;5185014;27;20023;-80
2024/04/20 03:32:43;;;;;;;2.03;0.85;;;;;;;12.68;45.29;96981.63;5229715;27;20008;-78
2024/04/20 03:35:08;;;;;;;2.58;1.30;;;;;;;12.61;45.12;96956.81;5197871;27;20019;-78
2024/04/20 03:37:34;;;;;;;1.10;0.65;;;;;;;12.80;45.01;96986.59;5219962;27;20395;-79
2024/04/20 03:40:00;;;;;;;2.20;0.98;;;;;;;12.82;45.15;96989.72;5239063;27;20445;-77
2024/04/20 03:42:26;;;;;;;4.35;0.95;;;;;;;12.77;44.88;96986.34;5210973;27;20011;-79
2024/04/20 03:44:52;;;;;;;3.28;0.75;;;;;;;12.81;45.07;96997.81;5183713;27;20007;-79
2024/04/20 03:47:19;;;;;;;2.38;0.65;;;;;;;12.87;44.95;96994.16;5192445;27;20449;-79
2024/04/20 03:49:45;;;;;;;2.88;1.00;;;;;;;12.83;45.01;96996.50;5205202;27;20023;-78
2024/04/20 03:52:10;;;;;;;2.78;0.70;;;;;;;12.74;44.97;96990.25;5175423;27;20463;-79
2024/04/20 03:54:35;;;;;;;2.22;0.60;;;;;;;12.57;45.21;96981.91;5244937;27;20026;-77
2024/04/20 03:57:01;;;;;;;1.33;0.80;;;;;;;12.80;44.93;96997.03;5210039;27;20438;-78
2024/04/20 03:59:26;;;;;;;1.90;0.95;;;;;;;12.88;45.17;97006.16;5210550;27;20012;-79
2024/04/20 04:01:52;;;;;;;1.73;0.80;;;;;;;12.69;44.99;97013.75;5208684;27;20350;-79
2024/04/20 04:04:17;;;;;;;1.60;0.80;;;;;;;12.65;45.02;96994.44;5198659;27;20023;-79
2024/04/20 04:06:43;;;;;;;2.35;0.90;;;;;;;12.67;45.10;97015.84;5241399;27;20106;-78
2024/04/20 04:09:08;;;;;;;2.58;1.02;;;;;;;12.51;45.27;97010.63;5211111;27;20109;-79
2024/04/20 04:11:34;;;;;;;3.50;0.73;;;;;;;12.38;45.97;97013.75;5208671;27;20012;-79
2024/04/20 04:14:00;;;;;;;2.85;0.80;;;;;;;12.64;45.50;97040.66;5209604;27;20104;-79
2024/04/20 04:16:26;;;;;;;3.20;1.00;;;;;;;12.71;45.19;97041.19;5209502;27;20566;-77
2024/04/20 04:18:51;;;;;;;2.85;0.77;;;;;;;12.67;44.99;97029.69;5180968;27;20022;-77
2024/04/20 04:21:17;;;;;;;2.70;0.82;;;;;;;12.63;45.31;97030.47;5212427;27;20463;-77
2024/04/20 04:23:42;;;;;;;2.55;0.73;;;;;;;12.67;45.13;97037.53;5241258;27;20003;-79
2024/04/20 04:26:12;;;;;;;1.77;0.80;;;;;;;12.57;45.21;97036.75;5218240;27;20063;-78
2024/04/20 04:28:37;;;;;;;2.08;0.88;;;;;;;12.60;45.13;97049.28;5200550;27;20019;-77
2024/04/20 04:31:03;;;;;;;2.90;0.95;;;;;;;12.60;45.13;97044.84;5212505;27;20019;-79
2024/04/20 04:33:28;;;;;;;5.22;1.17;;;;;;;12.67;45.31;97057.66;5244075;27;20007;-78
2024/04/20 04:35:58;;;;;;;2.47;0.90;;;;;;;12.74;45.11;97058.16;5186224;27;20085;-79
2024/04/20 04:38:24;;;;;;;1.17;0.88;;;;;;;12.53;45.21;97049.53;5166205;27;20003;-79
2024/04/20 04:40:49;;;;;;;3.45;1.05;;;;;;;12.43;45.64;97046.91;5228450;27;20007;-79
2024/04/20 04:43:15;;;;;;;2.33;0.82;;;;;;;12.59;45.43;97060.75;5211564;27;20023;-79
2024/04/20 04:45:40;;;;;;;1.48;0.85;;;;;;;12.68;45.10;97057.38;5244484;27;20021;-79
2024/04/20 04:48:06;;;;;;;1.13;0.70;;;;;;;12.58;45.49;97053.97;5242459;27;20427;-79
2024/04/20 04:50:32;;;;;;;3.00;0.85;;;;;;;12.41;45.94;97067.28;5209485;27;20036;-79
2024/04/20 04:52:59;;;;;;;1.95;1.15;;;;;;;12.55;45.63;97068.34;5232483;27;20482;-79
2024/04/20 04:55:25;;;;;;;3.88;0.70;;;;;;;12.62;45.21;97065.47;5183558;27;20031;-80
2024/04/20 04:57:50;;;;;;;1.65;0.80;;;;;;;12.63;45.61;97080.09;5222171;27;20025;-79
2024/04/20 05:00:16;;;;;;;3.35;1.02;;;;;;;12.70;45.14;97067.56;5212218;27;20024;-78
2024/04/20 05:02:42;;;;;;;1.23;0.90;;;;;;;12.65;45.49;97084.03;5208189;27;20023;-77
2024/04/20 05:05:07;;;;;;;1.73;0.90;;;;;;;12.62;45.55;97099.44;5232250;27;20022;-79
2024/04/20 05:07:33;;;;;;;1.60;0.80;;;;;;;12.75;44.95;97088.47;5164475;27;20553;-78
2024/04/20 05:09:58;;;;;;;4.38;1.05;;;;;;;12.71;45.19;97092.63;5190981;27;20023;-78
2024/04/20 05:12:24;;;;;;;3.42;1.02;;;;;;;12.79;45.10;97105.19;5242991;27;20475;-79
2024/04/20 05:14:51;;;;;;;0.98;0.85;;;;;;;12.86;44.96;97104.94;5241293;27;20011;-83
2024/04/20 05:17:17;;;;;;;2.22;1.48;;;;;;;12.63;44.79;97090.53;5203321;27;20035;-87
2024/04/20 05:19:42;;;;;;;3.17;1.20;;;;;;;12.79;44.79;97110.41;5205777;27;20007;-84
2024/04/20 05:22:07;;;;;;;2.13;0.90;;;;;;;12.80;44.94;97117.22;5214266;27;20102;-84
2024/04/20 05:24:33;;;;;;;2.67;1.45;;;;;;;12.79;45.11;97115.66;5208102;27;20004;-80
2024/04/20 05:26:59;;;;;;;1.90;1.05;;;;;;;12.90;44.76;97111.22;5239946;27;20018;-78
2024/04/20 05:29:24;;;;;;;2.28;1.25;;;;;;;12.93;44.30;97116.69;5235476;27;20007;-79
2024/04/20 05:31:49;;;;;;;2.42;0.82;;;;;;;12.73;44.98;97116.66;5206846;27;20445;-78
2024/04/20 05:34:15;;;;;;;2.13;1.30;;;;;;;12.85;44.65;97119.84;5168602;27;20011;-78
2024/04/20 05:36:41;;;;;;;2.22;1.23;;;;;;;12.81;44.54;97118.00;5234476;27;20027;-78
2024/04/20 05:39:07;;;;;;;2.10;1.17;;;;;;;12.49;45.29;97103.31;5234415;27;20586;-79
2024/04/20 05:41:33;;;;;;;3.28;1.00;;;;;;;12.89;44.88;97131.34;5259871;27;20007;-77
2024/04/20 05:43:59;;;;;;;2.10;0.90;;;;;;;12.86;44.50;97134.47;5235061;27;20473;-79
2024/04/20 05:46:24;;;;;;;2.85;1.70;;;;;;;12.82;45.01;97143.88;5254612;27;20003;-77
2024/04/20 05:48:50;;;;;;;1.55;1.20;;;;;;;13.08;44.62;97142.06;5237171;27;20008;-79
2024/04/20 05:51:15;;;;;;;2.60;1.35;;;;;;;13.13;44.47;97150.97;5211416;27;20021;-77
2024/04/20 05:53:41;;;;;;;3.30;1.52;;;;;;;13.10;44.17;97145.19;5189352;27;20004;-78
2024/04/20 05:56:06;;;;;;;4.93;1.52;;;;;;;13.13;44.20;97154.34;5235741;27;20359;-78
2024/04/20 05:58:31;;;;;;;2.00;1.10;;;;;;;13.27;44.57;97163.25;5206462;27;20011;-78
2024/04/20 06:00:57;;;;;;;2.63;1.30;;;;;;;13.33;44.33;97165.88;5190075;27;20074;-79
2024/04/20 06:03:22;;;;;;;2.88;1.40;;;;;;;13.39;43.84;97168.25;5241333;27;20047;-79
2024/04/20 06:05:48;;;;;;;3.20;1.50;;;;;;;13.28;44.30;97161.41;5239346;27;20023;-80
2024/04/20 06:08:14;;;;;;;3.58;1.48;;;;;;;13.52;43.65;97166.94;5219253;27;20036;-77
2024/04/20 06:10:39;;;;;;;2.05;1.10;;;;;;;13.38;44.05;97153.59;5213329;27;20003;-78
2024/04/20 06:13:05;;;;;;;2.30;1.30;;;;;;;13.53;44.09;97167.72;5217185;27;20007;-78
2024/04/20 06:15:34;;;;;;;3.60;1.40;;;;;;;13.54;43.98;97175.31;5218405;27;20015;-78
2024/04/20 06:18:00;;;;;;;3.75;1.42;;;;;;;13.51;43.75;97183.66;5244234;27;20021;-78
2024/04/20 06:20:26;;;;;;;2.33;1.08;;;;;;;13.68;43.54;97184.19;5225500;27;20018;-78
2024/04/20 06:22:51;;;;;;;3.33;1.30;;;;;;;13.70;43.59;97175.28;5203973;27;20004;-78
2024/04/20 06:25:17;;;;;;;2.55;1.58;;;;;;;13.71;43.44;97193.34;5223343;27;20043;-78
2024/04/20 06:27:42;;;;;;;1.75;1.45;;;;;;;13.78;42.76;97191.22;5240179;27;20007;-77
2024/04/20 06:30:09;;;;;;;5.13;1.55;;;;;;;13.76;43.28;97205.63;5216626;27;20007;-78
2024/04/20 06:32:35;;;;;;;3.10;1.13;;;;;;;13.70;43.26;97199.63;5216161;27;20011;-81
2024/04/20 06:35:00;;;;;;;1.80;1.20;;;;;;;13.72;43.16;97207.19;5223175;27;20028;-78
2024/04/20 06:37:26;;;;;;;1.70;1.20;;;;;;;13.76;42.81;97211.66;5218191;27;20007;-78
2024/04/20 06:39:51;;;;;;;2.42;1.65;;;;;;;13.78;42.64;97212.16;5242650;27;20069;-78
2024/04/20 06:42:17;;;;;;;2.03;1.20;;;;;;;13.81;42.76;97218.69;5247526;27;20022;-78
2024/04/20 06:44:47;;;;;;;2.20;1.45;;;;;;;13.68;42.63;97226.03;5239697;27;20533;-78
2024/04/20 06:47:13;;;;;;;3.58;1.67;;;;;;;13.77;42.49;97233.38;5235851;27;20460;-78
2024/04/20 06:49:38;;;;;;;4.22;2.63;;;;;;;13.39;43.52;97217.94;5227530;27;20011;-79
2024/04/20 06:52:07;;;;;;;4.10;1.90;;;;;;;13.68;43.16;97220.81;5218330;27;20094;-79
2024/04/20 06:54:33;;;;;;;3.63;2.25;;;;;;;13.62;43.39;97223.69;5246071;27;20368;-82
2024/04/20 06:56:58;;;;;;;3.28;1.63;;;;;;;13.81;42.80;97232.59;5187255;27;20020;-78
2024/04/20 06:59:25;;;;;;;3.25;1.92;;;;;;;13.86;42.33;97242.25;5191334;27;20019;-79
2024/04/20 07:01:51;;;;;;;2.40;1.75;;;;;;;13.98;42.19;97223.66;5239329;27;20449;-77
2024/04/20 07:04:16;;;;;;;2.20;1.60;;;;;;;13.82;42.89;97241.22;5214101;27;20012;-78
2024/04/20 07:06:42;;;;;;;4.45;2.15;;;;;;;13.84;41.86;97239.09;5247810;27;20019;-83
2024/04/20 07:09:07;;;;;;;2.67;2.00;;;;;;;13.88;41.67;97239.38;5239803;27;20072;-78
2024/04/20 07:11:33;;;;;;;5.75;2.63;;;;;;;13.83;42.37;97238.34;5188377;27;20022;-80
2024/04/20 07:13:58;;;;;;;3.70;2.10;;;;;;;13.89;42.64;97241.72;5246443;27;20007;-81
2024/04/20 07:16:24;;;;;;;4.07;2.03;;;;;;;14.23;41.82;97259.47;5267210;27;20110;-79
2024/04/20 07:18:50;;;;;;;5.43;2.38;;;;;;;14.28;41.17;97245.59;5184775;27;20011;-78
2024/04/20 07:21:16;;;;;;;3.35;1.95;;;;;;;14.02;41.95;97250.88;5189069;27;20000;-79
2024/04/20 07:23:41;;;;;;;3.55;2.50;;;;;;;14.12;42.01;97256.09;5220696;27;20502;-81
2024/04/20 07:26:07;;;;;;;4.00;2.47;;;;;;;14.25;41.21;97246.91;5240520;27;20027;-81
2024/04/20 07:28:33;;;;;;;4.13;2.50;;;;;;;14.56;41.22;97257.28;5233082;27;20019;-79
2024/04/20 07:30:59;;;;;;;4.40;2.42;;;;;;;14.91;39.79;97260.84;5223799;27;20095;-80
2024/04/20 07:33:27;;;;;;;3.72;2.10;;;;;;;14.90;39.23;97241.69;5219913;27;20022;-81
2024/04/20 07:35:52;;;;;;;4.57;2.85;;;;;;;14.88;38.95;97250.91;5208529;27;20058;-80
2024/04/20 07:38:18;;;;;;;2.85;2.38;;;;;;;15.12;38.53;97246.56;5222356;27;20008;-80
2024/04/20 07:40:43;;;;;;;3.80;2.40;;;;;;;14.79;39.82;97263.78;5237714;27;20014;-82
2024/04/20 07:43:08;;;;;;;4.47;2.58;;;;;;;14.85;38.94;97256.69;5195876;27;20051;-83
2024/04/20 07:45:34;;;;;;;3.00;1.92;;;;;;;14.61;39.12;97275.63;5214264;27;20004;-84
2024/04/20 07:48:00;;;;;;;3.83;2.50;;;;;;;14.84;38.30;97279.50;5214760;27;20007;-80
2024/04/20 07:50:26;;;;;;;3.10;2.50;;;;;;;15.00;38.42;97289.91;5211639;27;20400;-81
2024/04/20 07:52:51;;;;;;;4.60;2.47;;;;;;;14.74;37.92;97293.41;5191677;27;20019;-82
2024/04/20 07:55:17;;;;;;;4.60;2.55;;;;;;;14.85;38.16;97286.28;5212573;27;20106;-82
2024/04/20 07:57:47;;;;;;;2.65;2.20;;;;;;;14.98;37.60;97298.81;5251477;27;20007;-78
2024/04/20 08:00:13;;;;;;;3.88;2.20;;;;;;;15.00;38.01;97300.41;5246585;27;20007;-79
2024/04/20 08:02:38;;;;;;;2.90;2.13;;;;;;;15.10;36.94;97285.38;5195183;27;20047;-79
2024/04/20 08:05:04;;;;;;;4.75;2.33;;;;;;;15.14;38.29;97293.50;5242292;27;20018;-82
2024/04/20 08:07:30;;;;;;;3.70;2.28;;;;;;;15.36;37.27;97290.50;5247494;27;20007;-81
2024/04/20 08:09:55;;;;;;;4.00;2.40;;;;;;;15.64;36.43;97296.84;5243141;27;20012;-78
2024/04/20 08:12:21;;;;;;;3.38;2.50;;;;;;;15.86;36.24;97306.19;5249730;27;20025;-82
2024/04/20 08:14:46;;;;;;;3.40;2.45;;;;;;;15.86;36.76;97300.94;5189233;27;20011;-82
2024/04/20 08:17:12;;;;;;;6.90;3.05;;;;;;;16.01;37.28;97302.66;5203783;27;20049;-79
2024/04/20 08:19:38;;;;;;;7.35;2.38;;;;;;;15.64;35.96;97299.47;5207079;27;20419;-78
2024/04/20 08:22:04;;;;;;;3.97;2.28;;;;;;;15.94;35.54;97308.22;5198685;27;20048;-81
2024/04/20 08:24:31;;;;;;;3.45;2.38;;;;;;;15.91;36.80;97299.03;5188785;27;20019;-79
2024/04/20 08:26:59;;;;;;;3.78;1.90;;;;;;;15.97;37.12;97317.38;5211980;27;20452;-79
2024/04/20 08:29:25;;;;;;;8.98;4.55;;;;;;;15.41;37.75;97316.69;5227549;27;20003;-80
2024/04/20 08:31:51;;;;;;;5.00;3.13;;;;;;;14.93;39.47;97316.41;5228645;27;20022;-79
2024/04/20 08:34:17;;;;;;;4.05;2.40;;;;;;;15.11;38.44;97328.94;5217907;27;20008;-80
2024/04/20 08:36:45;;;;;;;4.25;2.80;;;;;;;15.49;38.14;97334.50;5196585;27;20014;-80
2024/04/20 08:39:11;;;;;;;3.47;2.10;;;;;;;15.50;36.65;97333.41;5239762;27;20018;-80
2024/04/20 08:41:48;;;;;;;4.85;2.60;;;;;;;15.57;37.22;97329.72;5194947;27;20008;-80
2024/04/20 08:44:18;;;;;;;4.88;3.28;;;;;;;15.71;37.13;97330.66;5208547;27;20452;-78
2024/04/20 08:46:45;;;;;;;3.25;2.83;;;;;;;15.67;37.04;97340.94;5214205;27;20043;-85
2024/04/20 08:49:10;;;;;;;2.72;2.33;;;;;;;15.73;37.28;97341.69;5219093;27;20006;-85
2024/04/20 08:51:37;;;;;;;3.80;2.38;;;;;;;15.99;37.15;97357.28;5212274;27;20022;-84
2024/04/20 08:54:04;;;;;;;4.07;1.95;;;;;;;15.96;37.36;97358.63;5235576;27;20018;-80
2024/04/20 08:56:32;;;;;;;3.28;1.60;;;;;;;15.88;36.90;97365.22;5192024;27;20014;-81
2024/04/20 08:58:59;;;;;;;2.97;1.75;;;;;;;15.20;39.12;97365.06;5223666;27;20004;-81
2024/04/20 09:01:25;;;;;;;4.30;2.47;;;;;;;15.16;39.19;97373.50;5206238;27;20030;-78
2024/04/20 09:03:52;;;;;;;5.03;2.90;;;;;;;14.43;40.88;97387.00;5217811;27;20019;-86
2024/04/20 09:06:18;;;;;;;5.85;2.90;;;;;;;14.38;41.49;97394.88;5236586;27;20022;-86
2024/04/20 09:08:44;;;;;;;4.95;2.53;;;;;;;14.12;42.68;97396.69;5216966;27;20383;-88
2024/04/20 09:11:09;;;;;;;6.97;2.90;;;;;;;14.02;43.07;97390.41;5239777;27;20006;-86
2024/04/20 09:13:35;;;;;;;4.05;3.15;;;;;;;14.00;43.98;97399.56;5154097;27;20011;-86
2024/04/20 09:16:05;;;;;;;6.13;3.30;;;;;;;13.97;44.20;97382.56;5215357;27;20090;-87
2024/04/20 09:18:31;;;;;;;3.75;2.80;;;;;;;14.10;44.09;97393.56;5209720;27;20055;-88
2024/04/20 09:20:57;;;;;;;4.13;2.42;;;;;;;14.20;45.58;97398.78;5209814;27;20170;-86
2024/04/20 09:23:23;;;;;;;3.33;2.83;;;;;;;14.54;44.74;97398.25;5224855;27;20050;-85
2024/04/20 09:25:52;;;;;;;5.15;2.97;;;;;;;15.04;45.29;97406.31;5227494;27;20065;-86
2024/04/20 09:28:18;;;;;;;4.53;3.10;;;;;;;14.99;44.45;97399.22;5296685;21;20021;-85
2024/04/20 09:30:50;;;;;;;4.35;3.10;;;;;;;14.95;45.49;97411.31;5258646;27;20015;-88
2024/04/20 09:35:46;;;;;;;5.22;2.83;;;;;;;15.36;44.58;97408.56;5197994;27;20027;-84
2024/04/20 09:38:12;;;;;;;5.40;3.60;;;;;;;15.54;44.60;97418.44;5181421;27;20075;-86
2024/04/20 09:40:37;;;;;;;3.90;2.78;;;;;;;15.85;44.21;97415.69;5142732;27;20408;-85
2024/04/20 09:43:04;;;;;;;3.63;2.58;;;;;;;15.96;42.62;97413.75;5145909;27;20009;-86
2024/04/20 09:45:29;;;;;;;6.75;3.85;;;;;;;15.89;43.63;97416.69;5150361;27;20008;-84
2024/04/20 09:47:57;;;;;;;6.30;3.10;;;;;;;15.91;43.85;97413.78;5181921;27;20027;-86
2024/04/20 09:50:25;;;;;;;7.30;4.13;;;;;;;16.25;43.14;97407.78;5154352;27;20022;-83
2024/04/20 09:52:59;;;;;;;4.72;3.38;;;;;;;16.04;42.49;97410.56;5159836;27;20125;-85
2024/04/20 09:55:29;;;;;;;4.38;2.45;;;;;;;15.86;41.42;97388.34;5212740;27;20086;-83
2024/04/20 09:57:55;;;;;;;5.55;2.92;;;;;;;15.91;40.95;97403.28;5128888;27;20016;-87
2024/04/20 10:00:22;;;;;;;4.38;2.97;;;;;;;16.07;42.18;97404.78;5187080;27;20012;-84
2024/04/20 10:02:48;;;;;;;8.65;4.10;;;;;;;15.81;41.33;97408.59;5164299;27;20637;-85
2024/04/20 10:05:14;;;;;;;4.90;3.30;;;;;;;15.92;41.66;97389.13;5160416;27;20009;-85
2024/04/20 10:07:40;;;;;;;5.65;3.40;;;;;;;15.77;40.52;97413.63;5177465;27;20022;-80
2024/04/20 10:10:06;;;;;;;3.97;2.40;;;;;;;15.70;40.89;97413.13;5163469;27;20614;-85
2024/04/20 10:12:31;;;;;;;3.25;2.15;;;;;;;15.65;40.03;97384.28;5184457;27;20023;-80
2024/04/20 10:14:57;;;;;;;3.17;2.17;;;;;;;16.01;40.83;97405.06;5158827;27;20012;-81
2024/04/20 10:17:25;;;;;;;2.50;2.00;;;;;;;16.25;40.06;97408.56;5185640;27;20522;-79
2024/04/20 10:19:52;;;;;;;2.10;1.45;;;;;;;16.33;40.67;97411.66;5184393;27;20016;-79
2024/04/20 10:22:22;;;;;;;1.73;1.40;;;;;;;16.39;39.80;97413.19;5187746;27;20318;-79
2024/04/20 10:25:03;;;;;;;1.95;1.30;;;;;;;16.20;39.15;97407.81;5160049;27;20016;-79
2024/04/20 10:27:32;;;;;;;2.28;1.48;;;;;;;16.55;40.14;97417.22;5219268;27;20007;-79
2024/04/20 10:30:20;;;;;;;2.13;1.30;;;;;;;16.58;39.91;97429.06;5187265;27;20018;-79
2024/04/20 10:32:53;;;;;;;2.40;1.27;;;;;;;15.77;39.84;97432.00;5186056;27;20064;-82
2024/04/20 10:35:20;;;;;;;2.83;1.00;;;;;;;15.60;40.70;97439.41;5125206;27;20012;-79
2024/04/20 10:37:56;;;;;;;2.70;0.95;;;;;;;15.48;41.61;97439.72;5149835;27;20338;-79
2024/04/20 10:40:32;;;;;;;1.58;0.70;;;;;;;15.79;41.87;97452.72;5155849;27;20457;-79
2024/04/20 10:43:12;;;;;;;1.10;0.90;;;;;;;15.85;41.16;97452.44;5130469;27;20008;-79
2024/04/20 10:45:39;;;;;;;1.05;0.70;;;;;;;15.76;41.76;97448.78;5176787;27;20460;-78
2024/04/20 10:48:05;;;;;;;2.28;1.30;;;;;;;15.72;41.31;97442.50;5155284;27;20027;-78
2024/04/20 10:50:30;;;;;;;1.83;1.02;;;;;;;15.76;42.54;97440.91;5153410;27;20606;-81
2024/04/20 10:53:05;;;;;;;1.60;1.10;;;;;;;15.85;41.35;97439.31;5147813;27;20087;-79
2024/04/20 10:55:31;;;;;;;1.52;1.15;;;;;;;16.23;41.07;97431.69;5150698;27;20368;-76
2024/04/20 10:57:58;;;;;;;1.80;0.90;;;;;;;16.54;40.56;97431.44;5149987;27;20005;-77
2024/04/20 11:00:23;;;;;;;2.00;0.80;;;;;;;16.63;40.41;97432.41;5179572;27;20048;-77
2024/04/20 11:02:52;;;;;;;1.55;0.40;;;;;;;17.17;40.05;97435.88;5180210;27;20012;-78
2024/04/20 11:05:18;;;;;;;0.60;0.50;;;;;;;17.31;39.78;97412.28;5175529;27;20024;-77
2024/04/20 11:07:44;;;;;;;1.15;0.70;;;;;;;17.48;39.05;97424.16;5148755;27;20028;-83
2024/04/20 11:10:18;;;;;;;0.60;0.40;;;;;;;17.77;37.86;97432.75;5190913;27;20031;-78
2024/04/20 11:12:43;;;;;;;0.65;0.55;;;;;;;17.80;37.99;97420.84;5161736;27;20413;-79
2024/04/20 11:15:09;;;;;;;0.60;0.50;;;;;;;18.27;37.72;97411.22;5153996;27;20018;-78
2024/04/20 11:17:36;;;;;;;0.50;0.40;;;;;;;18.56;36.78;97422.63;5154129;27;20008;-77
2024/04/20 11:20:02;;;;;;;0.60;0.38;;;;;;;18.41;36.32;97421.03;5154879;27;20090;-79
2024/04/20 11:22:32;;;;;;;0.35;0.35;;;;;;;18.62;37.68;97416.19;5161578;27;20254;-77
2024/04/20 11:25:09;;;;;;;0.80;0.30;;;;;;;18.86;35.96;97416.84;5182929;27;20471;-77
2024/04/20 11:27:34;;;;;;;0.50;0.50;;;;;;;18.86;35.02;97405.50;5123295;27;20012;-78
2024/04/20 11:30:01;;;;;;;1.05;0.60;;;;;;;18.65;38.49;97402.44;5183094;27;20016;-78
2024/04/20 11:32:26;;;;;;;0.55;0.47;;;;;;;18.53;36.38;97408.94;5167884;27;20011;-81